createdAt,value
2023-02-01T08:54:11.484Z,6.11
2023-02-01T08:56:39.650Z,6.19
2023-02-01T08:59:07.047Z,6.22
2023-02-01T09:01:34.352Z,6.34
2023-02-01T09:04:01.714Z,6.35
2023-02-01T09:06:29.047Z,6.41
2023-02-01T09:08:57.089Z,6.45
2023-02-01T09:11:24.396Z,6.49
2023-02-01T09:13:51.720Z,6.59
2023-02-01T09:16:20.060Z,6.61
2023-02-01T09:19:01.644Z,6.68
2023-02-01T09:21:34.887Z,6.81
2023-02-01T09:24:02.649Z,6.84
2023-02-01T09:26:32.638Z,6.78
2023-02-01T09:29:02.061Z,6.82
2023-02-01T09:31:29.612Z,7.10
2023-02-01T09:33:57.744Z,7.09
2023-02-01T09:36:25.054Z,7.23
2023-02-01T09:38:53.591Z,7.29
2023-02-01T09:42:39.029Z,7.48
2023-02-01T09:45:33.428Z,7.45
2023-02-01T09:48:23.466Z,7.87
2023-02-01T09:51:00.359Z,8.45
2023-02-01T09:53:36.788Z,8.52
2023-02-01T09:56:25.642Z,8.22
2023-02-01T09:59:33.461Z,7.91
2023-02-01T10:02:02.981Z,7.78
2023-02-01T10:04:30.632Z,8.02
2023-02-01T10:08:05.933Z,7.82
2023-02-01T10:10:48.637Z,7.99
2023-02-01T10:13:56.640Z,7.88
2023-02-01T10:17:14.073Z,7.63
2023-02-01T10:20:34.319Z,7.92
2023-02-01T10:24:16.791Z,7.71
2023-02-01T10:27:11.168Z,7.67
2023-02-01T10:29:46.802Z,7.65
2023-02-01T10:32:29.479Z,7.55
2023-02-01T10:35:19.869Z,7.81
2023-02-01T10:37:47.732Z,7.85
2023-02-01T10:40:26.704Z,8.03
2023-02-01T10:43:05.526Z,8.22
2023-02-01T10:45:34.633Z,8.12
2023-02-01T10:48:05.158Z,8.09
2023-02-01T10:50:56.318Z,8.09
2023-02-01T10:53:27.743Z,8.39
2023-02-01T10:55:56.396Z,8.75
2023-02-01T10:58:34.306Z,9.02
2023-02-01T11:01:11.374Z,8.68
2023-02-01T11:03:53.465Z,8.72
2023-02-01T11:06:46.778Z,8.64
2023-02-01T11:09:24.597Z,8.51
2023-02-01T11:11:51.663Z,8.21
2023-02-01T11:14:26.174Z,7.93
2023-02-01T11:17:01.004Z,7.89
2023-02-01T11:19:29.800Z,7.71
2023-02-01T11:22:02.017Z,7.67
2023-02-01T11:24:36.675Z,7.91
2023-02-01T11:27:22.060Z,7.75
2023-02-01T11:30:01.667Z,7.75
2023-02-01T11:32:29.587Z,7.81
2023-02-01T11:35:12.968Z,7.98
2023-02-01T11:37:44.028Z,7.94
2023-02-01T11:40:17.512Z,7.77
2023-02-01T11:43:29.872Z,7.83
2023-02-01T11:46:23.558Z,7.75
2023-02-01T11:48:50.902Z,7.63
2023-02-01T11:51:55.757Z,7.87
2023-02-01T11:55:19.822Z,8.01
2023-02-01T11:58:23.337Z,7.91
2023-02-01T12:02:05.866Z,8.16
2023-02-01T12:05:32.399Z,7.86
2023-02-01T12:08:42.485Z,7.86
2023-02-01T12:12:23.695Z,7.98
2023-02-01T12:15:42.473Z,8.02
2023-02-01T12:18:41.160Z,8.03
2023-02-01T12:21:44.412Z,8.31
2023-02-01T12:25:06.367Z,8.35
2023-02-01T12:28:21.847Z,8.42
2023-02-01T12:31:43.337Z,8.28
2023-02-01T12:34:39.890Z,8.46
2023-02-01T12:37:45.381Z,8.49
2023-02-01T12:40:49.650Z,8.43
2023-02-01T12:43:50.768Z,8.24
2023-02-01T12:46:38.357Z,8.12
2023-02-01T12:50:23.133Z,8.00
2023-02-01T12:53:21.066Z,7.96
2023-02-01T12:56:04.827Z,7.88
2023-02-01T12:58:56.856Z,7.89
2023-02-01T13:01:53.337Z,7.90
2023-02-01T13:05:20.114Z,7.77
2023-02-01T13:08:17.216Z,7.71
2023-02-01T13:10:58.695Z,7.75
2023-02-01T13:14:34.892Z,7.74
2023-02-01T13:17:24.455Z,7.78
2023-02-01T13:20:06.125Z,7.84
2023-02-01T13:22:55.383Z,7.72
2023-02-01T13:25:47.415Z,7.58
2023-02-01T13:28:35.898Z,7.52
2023-02-01T13:31:49.867Z,7.69
2023-02-01T13:35:09.945Z,7.68
2023-02-01T13:38:15.380Z,7.59
2023-02-01T13:41:16.445Z,7.45
2023-02-01T13:43:51.610Z,7.67
2023-02-01T13:46:19.090Z,7.49
2023-02-01T13:49:03.020Z,7.64
2023-02-01T13:51:47.489Z,7.67
2023-02-01T13:54:40.098Z,7.70
2023-02-01T13:57:42.286Z,7.74
2023-02-01T14:00:39.023Z,7.60
2023-02-01T14:03:06.057Z,7.75
2023-02-01T14:05:34.960Z,7.63
2023-02-01T14:08:06.151Z,7.77
2023-02-01T14:10:59.282Z,7.69
2023-02-01T14:13:43.022Z,7.84
2023-02-01T14:16:18.160Z,7.96
2023-02-01T14:18:47.309Z,7.86
2023-02-01T14:21:28.898Z,7.77
2023-02-01T14:24:13.686Z,7.68
2023-02-01T14:26:59.668Z,7.91
2023-02-01T14:29:39.275Z,7.86
2023-02-01T14:32:27.277Z,7.82
2023-02-01T14:35:01.104Z,7.74
2023-02-01T14:37:36.932Z,7.70
2023-02-01T14:40:13.266Z,7.91
2023-02-01T14:42:43.233Z,7.93
2023-02-01T14:45:26.247Z,7.99
2023-02-01T14:48:06.978Z,7.71
2023-02-01T14:50:41.744Z,7.64
2023-02-01T14:53:15.664Z,7.71
2023-02-01T14:56:10.613Z,7.62
2023-02-01T14:59:13.806Z,7.67
2023-02-01T15:01:56.088Z,7.57
2023-02-01T15:04:28.733Z,7.50
2023-02-01T15:07:08.045Z,7.59
2023-02-01T15:09:47.985Z,7.57
2023-02-01T15:12:31.654Z,7.67
2023-02-01T15:15:25.121Z,7.59
2023-02-01T15:18:01.091Z,7.68
2023-02-01T15:20:34.302Z,7.63
2023-02-01T15:23:17.618Z,7.61
2023-02-01T15:25:48.438Z,7.65
2023-02-01T15:28:18.173Z,7.73
2023-02-01T15:31:01.601Z,7.87
2023-02-01T15:33:32.056Z,7.76
2023-02-01T15:36:23.445Z,7.84
2023-02-01T15:39:26.573Z,7.67
2023-02-01T15:42:19.768Z,7.73
2023-02-01T15:44:47.783Z,7.77
2023-02-01T15:47:30.429Z,7.90
2023-02-01T15:50:02.060Z,7.84
2023-02-01T15:52:42.518Z,7.87
2023-02-01T15:55:24.239Z,7.87
2023-02-01T15:57:52.707Z,7.75
2023-02-01T16:00:51.474Z,7.76
2023-02-01T16:03:43.664Z,7.75
2023-02-01T16:06:30.682Z,7.81
2023-02-01T16:09:14.500Z,8.07
2023-02-01T16:12:02.850Z,8.09
2023-02-01T16:14:30.642Z,7.94
2023-02-01T16:17:00.114Z,8.00
2023-02-01T16:19:29.379Z,8.05
2023-02-01T16:21:57.525Z,8.00
2023-02-01T16:24:26.900Z,8.00
2023-02-01T16:26:54.510Z,7.97
2023-02-01T16:29:22.665Z,8.03
2023-02-01T16:31:51.236Z,8.00
2023-02-01T16:34:19.546Z,7.97
2023-02-01T16:36:57.923Z,7.91
2023-02-01T16:39:25.542Z,7.81
2023-02-01T16:41:52.897Z,7.76
2023-02-01T16:44:20.492Z,7.71
2023-02-01T16:46:49.755Z,7.70
2023-02-01T16:49:25.844Z,7.64
2023-02-01T16:51:59.421Z,7.58
2023-02-01T16:54:27.712Z,7.63
2023-02-01T16:56:55.323Z,7.81
2023-02-01T16:59:22.646Z,7.48
2023-02-01T17:01:49.907Z,7.58
2023-02-01T17:04:18.500Z,7.50
2023-02-01T17:06:48.280Z,7.53
2023-02-01T17:09:15.712Z,7.59
2023-02-01T17:11:43.192Z,7.58
2023-02-01T17:14:22.521Z,7.62
2023-02-01T17:16:51.513Z,7.45
2023-02-01T17:19:24.585Z,7.35
2023-02-01T17:21:56.979Z,7.33
2023-02-01T17:24:46.639Z,7.44
2023-02-01T17:27:17.392Z,7.40
2023-02-01T17:29:47.080Z,7.50
2023-02-01T17:32:25.464Z,7.35
2023-02-01T17:34:52.991Z,7.44
2023-02-01T17:37:34.674Z,7.44
2023-02-01T17:40:02.358Z,7.53
2023-02-01T17:42:30.990Z,7.54
2023-02-01T17:45:37.071Z,7.43
2023-02-01T17:48:08.610Z,7.55
2023-02-01T17:50:38.833Z,7.39
2023-02-01T17:53:09.842Z,7.38
2023-02-01T17:55:44.886Z,7.46
2023-02-01T17:58:15.939Z,7.35
2023-02-01T18:00:45.566Z,7.42
2023-02-01T18:03:33.764Z,7.47
2023-02-01T18:06:01.888Z,7.42
2023-02-01T18:08:33.671Z,7.28
2023-02-01T18:11:02.342Z,7.42
2023-02-01T18:13:32.963Z,7.39
2023-02-01T18:16:01.993Z,7.35
2023-02-01T18:18:31.206Z,7.40
2023-02-01T18:20:59.427Z,7.34
2023-02-01T18:23:26.769Z,7.29
2023-02-01T18:25:54.180Z,7.39
2023-02-01T18:28:21.476Z,7.34
2023-02-01T18:30:51.669Z,7.37
2023-02-01T18:33:21.517Z,7.32
2023-02-01T18:35:49.699Z,7.31
2023-02-01T18:38:17.179Z,7.31
2023-02-01T18:40:58.231Z,7.28
2023-02-01T18:43:27.221Z,7.38
2023-02-01T18:45:55.571Z,7.40
